createdAt,value
2017-07-30T00:01:20.722Z,99979.34
2017-07-30T00:03:52.704Z,99978.84
2017-07-30T00:06:25.066Z,99971.95
2017-07-30T00:08:56.426Z,99976.05
2017-07-30T00:11:29.185Z,99974.48
2017-07-30T00:14:03.829Z,99977.47
2017-07-30T00:16:36.063Z,99970.08
2017-07-30T00:19:09.482Z,99970.52
2017-07-30T00:21:42.449Z,99961.23
2017-07-30T00:24:14.209Z,99964.25
2017-07-30T00:26:46.296Z,99965.03
2017-07-30T00:29:18.141Z,99969.38
2017-07-30T00:31:52.132Z,99960.95
2017-07-30T00:34:23.561Z,99964.19
2017-07-30T00:36:55.266Z,99968.70
2017-07-30T00:39:26.566Z,99961.02
2017-07-30T00:41:57.888Z,99964.80
2017-07-30T00:44:29.521Z,99958.52
2017-07-30T00:47:00.818Z,99959.69
2017-07-30T00:49:32.152Z,99957.28
2017-07-30T00:52:04.851Z,99961.95
2017-07-30T00:54:36.265Z,99959.97
2017-07-30T00:57:07.782Z,99948.16
2017-07-30T00:59:39.203Z,99955.87
2017-07-30T01:02:10.719Z,99947.07
2017-07-30T01:04:42.373Z,99947.42
2017-07-30T01:07:13.736Z,99945.34
2017-07-30T01:09:45.282Z,99946.50
2017-07-30T01:12:16.644Z,99951.10
2017-07-30T01:14:48.374Z,99948.70
2017-07-30T01:17:19.755Z,99947.25
2017-07-30T01:19:51.263Z,99943.34
2017-07-30T01:22:22.972Z,99951.03
2017-07-30T01:24:54.392Z,99953.69
2017-07-30T01:27:25.706Z,99951.69
2017-07-30T01:29:57.323Z,99946.02
2017-07-30T01:32:28.707Z,99948.53
2017-07-30T01:35:00.297Z,99944.09
2017-07-30T01:37:31.650Z,99948.36
2017-07-30T01:40:04.637Z,99947.34
2017-07-30T01:42:37.240Z,99946.43
2017-07-30T01:45:08.612Z,99950.20
2017-07-30T01:47:39.954Z,99953.69
2017-07-30T01:50:11.596Z,99948.34
2017-07-30T01:52:42.922Z,99952.75
2017-07-30T01:55:14.269Z,99950.59
2017-07-30T01:57:45.904Z,99941.65
2017-07-30T02:00:17.326Z,99948.16
2017-07-30T02:02:48.687Z,99940.38
2017-07-30T02:05:20.301Z,99943.98
2017-07-30T02:07:51.615Z,99937.22
2017-07-30T02:10:23.193Z,99935.03
2017-07-30T02:12:54.540Z,99932.92
2017-07-30T02:15:25.843Z,99935.45
2017-07-30T02:17:57.157Z,99938.63
2017-07-30T02:20:28.491Z,99931.94
2017-07-30T02:23:00.295Z,99926.83
2017-07-30T02:25:31.657Z,99933.70
2017-07-30T02:28:03.655Z,99928.24
2017-07-30T02:30:34.946Z,99929.69
2017-07-30T02:33:06.444Z,99926.66
2017-07-30T02:35:38.067Z,99932.08
2017-07-30T02:38:09.391Z,99931.02
2017-07-30T02:40:40.682Z,99926.91
2017-07-30T02:43:12.285Z,99935.42
2017-07-30T02:45:43.581Z,99927.50
2017-07-30T02:48:14.927Z,99927.67
2017-07-30T02:50:47.549Z,99928.00
2017-07-30T02:53:18.832Z,99926.34
2017-07-30T02:55:50.131Z,99925.98
2017-07-30T02:58:21.798Z,99916.80
2017-07-30T03:00:53.105Z,99917.39
2017-07-30T03:03:24.410Z,99920.88
2017-07-30T03:05:55.984Z,99919.30
2017-07-30T03:08:27.316Z,99923.23
2017-07-30T03:10:58.699Z,99919.47
2017-07-30T03:13:30.062Z,99914.47
2017-07-30T03:16:01.421Z,99908.34
2017-07-30T03:18:32.752Z,99918.80
2017-07-30T03:21:04.088Z,99915.14
2017-07-30T03:23:35.699Z,99913.45
2017-07-30T03:26:07.006Z,99909.12
2017-07-30T03:28:38.346Z,99912.19
2017-07-30T03:31:09.678Z,99913.88
2017-07-30T03:33:41.305Z,99903.48
2017-07-30T03:36:12.624Z,99901.09
2017-07-30T03:38:43.973Z,99892.39
2017-07-30T03:41:15.593Z,99887.60
2017-07-30T03:43:46.911Z,99882.77
2017-07-30T03:46:18.226Z,99885.96
2017-07-30T03:48:49.660Z,99889.30
2017-07-30T03:51:20.979Z,99881.01
2017-07-30T03:53:55.124Z,99878.08
2017-07-30T03:56:26.455Z,99876.90
2017-07-30T03:58:57.764Z,99875.12
2017-07-30T04:01:30.396Z,99888.44
2017-07-30T04:04:01.709Z,99885.56
2017-07-30T04:06:33.643Z,99880.28
2017-07-30T04:09:05.233Z,99883.63
2017-07-30T04:11:36.517Z,99883.50
2017-07-30T04:14:08.133Z,99882.73
2017-07-30T04:16:39.520Z,99880.47
2017-07-30T04:19:11.031Z,99881.13
2017-07-30T04:21:42.676Z,99886.96
2017-07-30T04:24:13.991Z,99892.05
2017-07-30T04:26:45.391Z,99885.70
2017-07-30T04:29:16.715Z,99882.21
2017-07-30T04:31:48.011Z,99876.20
2017-07-30T04:34:19.804Z,99875.78
2017-07-30T04:36:51.080Z,99879.22
2017-07-30T04:39:22.427Z,99875.18
2017-07-30T04:41:54.130Z,99875.05
2017-07-30T04:44:25.488Z,99872.59
2017-07-30T04:46:56.876Z,99884.70
2017-07-30T04:49:28.190Z,99880.66
2017-07-30T04:51:59.638Z,99879.46
2017-07-30T04:54:32.365Z,99884.98
2017-07-30T04:57:03.830Z,99881.99
2017-07-30T04:59:35.177Z,99889.42
2017-07-30T05:02:09.352Z,99887.17
2017-07-30T05:04:43.122Z,99895.11
2017-07-30T05:07:16.065Z,99892.19
2017-07-30T05:09:48.448Z,99887.81
2017-07-30T05:12:22.738Z,99886.41
2017-07-30T05:14:56.824Z,99882.02
2017-07-30T05:17:29.356Z,99890.34
2017-07-30T05:20:04.265Z,99891.84
2017-07-30T05:22:37.976Z,99892.42
2017-07-30T05:25:14.901Z,99902.19
2017-07-30T05:30:41.371Z,99900.02
2017-07-30T05:33:13.034Z,99905.53
2017-07-30T05:35:44.416Z,99898.58
2017-07-30T05:38:16.064Z,99907.70
2017-07-30T05:40:47.386Z,99910.99
2017-07-30T05:43:18.729Z,99915.73
2017-07-30T05:45:50.087Z,99920.30
2017-07-30T05:48:21.673Z,99917.31
2017-07-30T05:50:53.044Z,99926.50
2017-07-30T05:53:24.345Z,99925.30
2017-07-30T05:55:56.069Z,99915.57
2017-07-30T05:58:27.419Z,99916.25
2017-07-30T06:00:59.147Z,99920.47
2017-07-30T06:03:30.516Z,99923.38
2017-07-30T06:06:02.758Z,99925.66
2017-07-30T06:08:34.154Z,99922.61
2017-07-30T06:11:05.489Z,99925.27
2017-07-30T06:13:37.122Z,99933.59
2017-07-30T06:16:11.256Z,99934.49
2017-07-30T06:18:42.839Z,99933.02
2017-07-30T06:21:19.757Z,99934.73
2017-07-30T06:23:54.345Z,99936.52
2017-07-30T06:26:27.984Z,99944.24
2017-07-30T06:28:59.321Z,99944.39
2017-07-30T06:31:30.955Z,99942.89
2017-07-30T06:34:04.712Z,99949.00
2017-07-30T06:36:37.842Z,99944.16
2017-07-30T06:39:11.767Z,99949.27
2017-07-30T06:41:44.545Z,99955.34
2017-07-30T06:44:18.090Z,99960.63
2017-07-30T06:46:51.217Z,99959.66
2017-07-30T06:49:22.755Z,99956.76
2017-07-30T06:51:55.936Z,99968.00
2017-07-30T06:54:29.652Z,99965.42
2017-07-30T06:57:03.613Z,99969.97
2017-07-30T06:59:36.597Z,99972.41
2017-07-30T07:02:09.217Z,99974.97
2017-07-30T07:04:40.564Z,99976.30
2017-07-30T07:07:13.389Z,99979.75
2017-07-30T07:09:45.154Z,99985.87
2017-07-30T07:12:17.466Z,99985.40
2017-07-30T07:14:49.655Z,99973.52
2017-07-30T07:17:24.379Z,99974.53
2017-07-30T07:19:55.704Z,99977.05
2017-07-30T07:22:29.900Z,99971.37
2017-07-30T07:25:05.773Z,99983.67
2017-07-30T07:27:37.082Z,99975.24
2017-07-30T07:30:13.005Z,99967.12
2017-07-30T07:32:45.333Z,99968.88
2017-07-30T07:35:19.024Z,99968.98
2017-07-30T07:37:50.632Z,99976.05
2017-07-30T07:40:23.339Z,99973.91
2017-07-30T07:42:54.969Z,99962.09
2017-07-30T07:45:27.657Z,99966.66
2017-07-30T07:47:59.641Z,99968.25
2017-07-30T07:50:32.276Z,99971.83
2017-07-30T07:56:16.140Z,99970.67
2017-07-30T07:58:49.692Z,99978.69
2017-07-30T08:01:23.905Z,99975.42
2017-07-30T08:03:56.539Z,99981.19
2017-07-30T08:06:31.565Z,99981.58
2017-07-30T08:09:11.541Z,99995.72
2017-07-30T08:11:44.752Z,99993.37
2017-07-30T08:14:17.598Z,99997.41
2017-07-30T08:16:51.574Z,99992.50
2017-07-30T08:22:21.797Z,99990.67
2017-07-30T08:24:56.670Z,99992.23
2017-07-30T08:27:29.780Z,99989.11
2017-07-30T08:30:03.838Z,99993.69
2017-07-30T08:32:37.936Z,99987.07
2017-07-30T08:35:16.926Z,99992.46
2017-07-30T08:37:51.542Z,99991.11
2017-07-30T08:40:26.558Z,99995.34
2017-07-30T08:42:59.737Z,100004.48
2017-07-30T08:45:34.323Z,99992.86
2017-07-30T08:48:14.259Z,100000.05
2017-07-30T08:50:46.574Z,99997.95
2017-07-30T08:53:24.344Z,100002.25
2017-07-30T08:56:18.160Z,100002.08
2017-07-30T08:58:52.685Z,99994.17
2017-07-30T09:01:29.690Z,100008.91
2017-07-30T09:04:15.946Z,99999.34
2017-07-30T09:06:50.934Z,100008.67
2017-07-30T09:09:27.298Z,100017.16
2017-07-30T09:12:05.601Z,100020.03
2017-07-30T09:14:41.009Z,100013.23
2017-07-30T09:17:20.915Z,100023.92
2017-07-30T09:19:57.621Z,100022.17
2017-07-30T09:22:36.411Z,100023.45
2017-07-30T09:25:08.066Z,100021.78
2017-07-30T09:27:39.542Z,100018.05
2017-07-30T09:30:19.167Z,100021.33
2017-07-30T09:32:58.410Z,100019.25
2017-07-30T09:35:30.604Z,100012.92
2017-07-30T09:40:38.385Z,99991.89
2017-07-30T09:43:10.092Z,99983.89
2017-07-30T09:45:41.512Z,99983.95
2017-07-30T09:48:14.744Z,99981.31
2017-07-30T09:50:46.301Z,99968.70
2017-07-30T09:55:41.423Z,99956.15
2017-07-30T09:58:13.680Z,99948.02
2017-07-30T10:00:45.795Z,99961.08
2017-07-30T10:03:17.515Z,99966.70
2017-07-30T10:05:48.880Z,99964.91
2017-07-30T10:08:21.452Z,99966.58
2017-07-30T10:10:53.181Z,99975.20
2017-07-30T10:13:24.595Z,99984.70
2017-07-30T10:15:56.015Z,99991.76
2017-07-30T10:18:27.752Z,100000.05
2017-07-30T10:21:05.301Z,99996.54
2017-07-30T10:23:40.895Z,100005.41
2017-07-30T10:26:25.856Z,100001.31
2017-07-30T10:28:59.753Z,100002.22
2017-07-30T10:31:31.972Z,100011.23
2017-07-30T10:34:06.403Z,100007.98
2017-07-30T10:36:38.281Z,100009.27
2017-07-30T10:39:10.088Z,100001.86
2017-07-30T10:41:41.881Z,100002.34
2017-07-30T10:44:20.136Z,99998.70
2017-07-30T10:46:52.250Z,99999.44
2017-07-30T10:49:23.801Z,99990.73
2017-07-30T10:51:55.823Z,99998.04
2017-07-30T10:54:27.726Z,99981.86
2017-07-30T10:56:59.202Z,99981.66
2017-07-30T10:59:31.183Z,99979.14
2017-07-30T11:02:04.256Z,99987.52
2017-07-30T11:04:48.822Z,100002.11
2017-07-30T11:07:20.375Z,100006.17
2017-07-30T11:09:53.011Z,100008.44
2017-07-30T11:12:24.706Z,100007.05
2017-07-30T11:14:57.357Z,100000.42
2017-07-30T11:17:28.832Z,100005.70
2017-07-30T11:20:00.436Z,99990.09
2017-07-30T11:22:32.405Z,99983.28
2017-07-30T11:25:04.126Z,99992.16
2017-07-30T11:27:35.805Z,99996.52
2017-07-30T11:30:08.073Z,99985.81
2017-07-30T11:32:39.572Z,99995.25
2017-07-30T11:35:12.227Z,99971.77
2017-07-30T11:37:48.567Z,99980.02
2017-07-30T11:40:25.302Z,99997.60
2017-07-30T11:42:57.555Z,100006.02
2017-07-30T11:45:29.555Z,100010.56
2017-07-30T11:50:40.060Z,99998.47
2017-07-30T11:53:13.232Z,99978.82
2017-07-30T11:55:45.392Z,99963.90
2017-07-30T11:58:19.665Z,99959.77
2017-07-30T12:00:54.364Z,99961.50
2017-07-30T12:03:29.753Z,99983.30
2017-07-30T12:06:09.262Z,99995.66
2017-07-30T12:08:44.368Z,100003.80
2017-07-30T12:11:19.706Z,100002.81
2017-07-30T12:16:45.840Z,100010.73
2017-07-30T12:19:19.365Z,100023.17
2017-07-30T12:21:52.526Z,100031.43
2017-07-30T12:24:27.075Z,100040.11
2017-07-30T12:26:58.979Z,100042.31
2017-07-30T12:29:31.435Z,100031.16
2017-07-30T12:32:05.778Z,100045.65
2017-07-30T12:34:41.009Z,100034.98
2017-07-30T12:37:17.237Z,100048.48
2017-07-30T12:39:51.337Z,100050.98
2017-07-30T12:42:24.766Z,100060.67
2017-07-30T12:44:58.353Z,100055.57
2017-07-30T12:47:34.078Z,100060.84
2017-07-30T12:50:08.236Z,100074.17
2017-07-30T12:52:39.626Z,100080.80
2017-07-30T12:55:11.472Z,100095.40
2017-07-30T12:57:42.787Z,100100.41
2017-07-30T13:00:17.082Z,100111.84
2017-07-30T13:02:48.399Z,100107.80
2017-07-30T13:05:20.002Z,100137.95
2017-07-30T13:07:57.968Z,100139.13
2017-07-30T13:10:29.311Z,100147.40
2017-07-30T13:13:08.829Z,100143.36
2017-07-30T13:15:41.179Z,100158.22
2017-07-30T13:18:14.933Z,100162.13
2017-07-30T13:20:47.863Z,100161.78
2017-07-30T13:23:19.321Z,100159.93
2017-07-30T13:25:51.603Z,100149.05
2017-07-30T13:28:23.576Z,100147.38
2017-07-30T13:30:55.084Z,100150.72
2017-07-30T13:33:27.079Z,100140.63
2017-07-30T13:35:59.017Z,100144.92
2017-07-30T13:38:30.339Z,100121.72
2017-07-30T13:41:01.865Z,100125.48
2017-07-30T13:43:33.243Z,100112.57
2017-07-30T13:46:05.965Z,100106.41
2017-07-30T13:48:37.327Z,100100.44
2017-07-30T13:51:08.772Z,100125.59
2017-07-30T13:53:40.348Z,100111.77
2017-07-30T13:56:12.243Z,100105.61
2017-07-30T13:58:43.771Z,100105.11
2017-07-30T14:01:15.149Z,100108.09
2017-07-30T14:03:46.689Z,100091.19
2017-07-30T14:06:18.507Z,100081.44
2017-07-30T14:08:50.645Z,100079.45
2017-07-30T14:11:22.287Z,100087.56
2017-07-30T14:13:53.713Z,100070.91
2017-07-30T14:16:25.525Z,100057.43
2017-07-30T14:18:56.972Z,100073.00
2017-07-30T14:21:30.259Z,100073.34
2017-07-30T14:24:03.341Z,100046.30
2017-07-30T14:26:34.742Z,100036.95
2017-07-30T14:29:06.948Z,100025.27
2017-07-30T14:31:39.082Z,100006.03
2017-07-30T14:34:12.756Z,99992.08
2017-07-30T14:36:44.147Z,99981.19
2017-07-30T14:39:15.945Z,99989.45
2017-07-30T14:41:47.970Z,99987.39
2017-07-30T14:44:20.123Z,100007.14
2017-07-30T14:46:51.631Z,100023.60
2017-07-30T14:49:24.697Z,100027.03
2017-07-30T14:51:57.196Z,100042.97
2017-07-30T14:54:29.304Z,100038.58
2017-07-30T14:59:48.858Z,100022.33
2017-07-30T15:02:21.470Z,100013.47
2017-07-30T15:04:52.847Z,100022.27
2017-07-30T15:07:24.297Z,100010.64
2017-07-30T15:09:56.227Z,100028.23
2017-07-30T15:12:27.575Z,100027.08
2017-07-30T15:14:58.995Z,100027.28
2017-07-30T15:17:30.713Z,100032.58
2017-07-30T15:20:03.885Z,100046.61
2017-07-30T15:22:35.313Z,100046.69
2017-07-30T15:25:09.352Z,100059.34
2017-07-30T15:27:40.965Z,100053.29
2017-07-30T15:30:13.815Z,100052.52
2017-07-30T15:32:47.261Z,100051.72
2017-07-30T15:35:21.589Z,100053.55
2017-07-30T15:37:53.341Z,100058.30
2017-07-30T15:40:25.255Z,100065.38
2017-07-30T15:42:56.833Z,100067.66
2017-07-30T15:45:32.022Z,100059.70
2017-07-30T15:51:06.836Z,100067.53
2017-07-30T15:53:38.747Z,100078.95
2017-07-30T15:56:11.091Z,100080.57
2017-07-30T15:58:42.674Z,100084.80
2017-07-30T16:01:15.533Z,100092.08
2017-07-30T16:03:46.937Z,100084.48
2017-07-30T16:06:18.479Z,100090.09
2017-07-30T16:08:50.359Z,100089.68
2017-07-30T16:11:21.866Z,100091.13
2017-07-30T16:13:53.245Z,100090.03
2017-07-30T16:16:24.794Z,100084.27
2017-07-30T16:19:00.539Z,100086.03
2017-07-30T16:21:35.194Z,100087.20
2017-07-30T16:24:10.073Z,100091.55
2017-07-30T16:26:44.153Z,100095.84
2017-07-30T16:29:20.730Z,100091.86
2017-07-30T16:31:55.869Z,100100.23
2017-07-30T16:34:28.996Z,100102.94
2017-07-30T16:37:16.856Z,100094.83
2017-07-30T16:39:57.754Z,100092.64
2017-07-30T16:42:42.379Z,100098.70
2017-07-30T16:45:27.619Z,100094.35
2017-07-30T16:48:10.548Z,100094.56
2017-07-30T16:50:45.529Z,100085.11
2017-07-30T16:53:16.975Z,100086.91
2017-07-30T16:55:48.819Z,100090.31
2017-07-30T16:58:20.206Z,100088.66
2017-07-30T17:00:51.584Z,100078.98
2017-07-30T17:03:23.490Z,100078.62
2017-07-30T17:05:55.108Z,100080.20
2017-07-30T17:08:26.808Z,100070.41
2017-07-30T17:10:59.160Z,100070.17
2017-07-30T17:13:30.575Z,100068.77
2017-07-30T17:16:03.939Z,100075.84
2017-07-30T17:18:35.454Z,100083.70
2017-07-30T17:21:06.958Z,100091.11
2017-07-30T17:23:38.911Z,100098.11
2017-07-30T17:26:10.862Z,100096.16
2017-07-30T17:28:42.234Z,100089.52
2017-07-30T17:31:13.921Z,100090.08
2017-07-30T17:33:45.440Z,100090.63
2017-07-30T17:36:17.021Z,100089.44
2017-07-30T17:38:49.005Z,100085.31
2017-07-30T17:41:20.503Z,100081.56
2017-07-30T17:43:52.768Z,100076.59
2017-07-30T17:46:24.685Z,100076.24
2017-07-30T17:48:55.998Z,100075.89
2017-07-30T17:51:27.690Z,100080.20
2017-07-30T17:53:59.140Z,100085.66
2017-07-30T17:56:31.661Z,100084.18
2017-07-30T17:59:09.934Z,100089.13
2017-07-30T18:01:41.381Z,100086.74
2017-07-30T18:04:13.474Z,100088.56
2017-07-30T18:06:46.038Z,100094.45
2017-07-30T18:09:18.829Z,100090.14
2017-07-30T18:11:51.449Z,100082.62
2017-07-30T18:14:22.858Z,100082.67
2017-07-30T18:16:54.680Z,100090.77
2017-07-30T18:19:26.159Z,100091.19
2017-07-30T18:21:57.660Z,100088.28
2017-07-30T18:24:29.541Z,100093.25
2017-07-30T18:27:00.882Z,100096.73
2017-07-30T18:29:32.401Z,100085.80
2017-07-30T18:32:04.893Z,100092.94
2017-07-30T18:37:33.222Z,100091.66
2017-07-30T18:40:07.570Z,100086.02
2017-07-30T18:42:39.484Z,100086.58
2017-07-30T18:45:11.135Z,100088.35
2017-07-30T18:47:42.575Z,100087.63
2017-07-30T18:50:15.116Z,100086.53
2017-07-30T18:52:47.572Z,100099.10
2017-07-30T18:55:19.859Z,100099.63
2017-07-30T18:57:55.102Z,100103.27
2017-07-30T19:03:22.668Z,100096.41
2017-07-30T19:05:56.380Z,100086.20
2017-07-30T19:08:28.242Z,100086.64
2017-07-30T19:10:59.737Z,100091.15
2017-07-30T19:13:31.341Z,100098.09
2017-07-30T19:16:03.376Z,100102.14
2017-07-30T19:18:34.850Z,100108.72
2017-07-30T19:21:06.729Z,100113.53
2017-07-30T19:23:38.388Z,100119.10
2017-07-30T19:26:10.230Z,100116.07
2017-07-30T19:28:41.657Z,100106.39
2017-07-30T19:31:13.255Z,100102.16
2017-07-30T19:33:44.929Z,100110.31
2017-07-30T19:36:16.467Z,100114.73
2017-07-30T19:38:48.006Z,100122.00
2017-07-30T19:41:19.700Z,100127.80
2017-07-30T19:43:51.114Z,100133.11
2017-07-30T19:48:44.507Z,100126.91
2017-07-30T19:51:16.748Z,100125.19
2017-07-30T19:53:55.119Z,100130.68
2017-07-30T19:56:28.192Z,100137.56
2017-07-30T19:59:01.281Z,100142.82
2017-07-30T20:01:33.064Z,100134.64
2017-07-30T20:04:26.433Z,100132.84
2017-07-30T20:06:58.087Z,100128.22
2017-07-30T20:09:36.386Z,100129.33
2017-07-30T20:12:11.781Z,100129.72
2017-07-30T20:14:43.616Z,100131.64
2017-07-30T20:17:15.222Z,100133.72
2017-07-30T20:19:46.840Z,100139.48
2017-07-30T20:22:18.337Z,100127.34
2017-07-30T20:24:49.708Z,100127.11
2017-07-30T20:27:21.568Z,100127.23
2017-07-30T20:29:53.552Z,100131.22
2017-07-30T20:32:25.144Z,100142.34
2017-07-30T20:34:56.981Z,100144.34
2017-07-30T20:37:29.457Z,100145.29
2017-07-30T20:40:02.595Z,100152.52
2017-07-30T20:45:05.505Z,100163.52
2017-07-30T20:47:37.237Z,100163.94
2017-07-30T20:50:09.068Z,100165.39
2017-07-30T20:52:40.735Z,100165.81
2017-07-30T20:55:12.634Z,100170.34
2017-07-30T20:57:44.042Z,100175.75
2017-07-30T21:00:16.018Z,100182.47
2017-07-30T21:02:47.326Z,100189.97
2017-07-30T21:05:18.615Z,100193.47
2017-07-30T21:07:50.054Z,100196.00
2017-07-30T21:10:22.503Z,100185.75
2017-07-30T21:12:56.673Z,100189.97
2017-07-30T21:15:30.288Z,100186.59
2017-07-30T21:18:05.933Z,100187.52
2017-07-30T21:20:40.766Z,100187.26
2017-07-30T21:23:14.253Z,100186.50
2017-07-30T21:25:45.755Z,100183.70
2017-07-30T21:28:17.109Z,100177.64
2017-07-30T21:30:49.052Z,100185.44
2017-07-30T21:33:24.188Z,100181.59
2017-07-30T21:35:58.141Z,100191.23
2017-07-30T21:38:30.970Z,100200.64
2017-07-30T21:41:06.328Z,100199.95
2017-07-30T21:43:40.267Z,100199.94
2017-07-30T21:46:13.127Z,100198.02
2017-07-30T21:48:48.136Z,100192.77
2017-07-30T21:51:21.337Z,100195.45
2017-07-30T21:53:53.793Z,100198.02
2017-07-30T21:56:26.997Z,100195.14
2017-07-30T21:59:01.456Z,100196.14
2017-07-30T22:01:32.977Z,100185.31
2017-07-30T22:04:05.440Z,100186.89
2017-07-30T22:06:36.787Z,100195.72
2017-07-30T22:09:08.164Z,100189.16
2017-07-30T22:11:40.083Z,100188.89
2017-07-30T22:14:11.575Z,100194.80
2017-07-30T22:16:44.226Z,100202.28
2017-07-30T22:19:16.505Z,100210.84
2017-07-30T22:21:49.148Z,100214.95
2017-07-30T22:24:22.745Z,100220.09
2017-07-30T22:26:55.288Z,100223.59
2017-07-30T22:29:26.737Z,100230.47
2017-07-30T22:31:58.722Z,100228.62
2017-07-30T22:34:31.436Z,100228.70
2017-07-30T22:37:04.028Z,100225.80
2017-07-30T22:39:36.193Z,100220.37
2017-07-30T22:42:11.855Z,100216.36
2017-07-30T22:44:44.223Z,100219.35
2017-07-30T22:47:15.705Z,100225.08
2017-07-30T22:49:47.231Z,100221.59
2017-07-30T22:52:20.900Z,100231.53
2017-07-30T22:54:53.188Z,100229.20
2017-07-30T22:57:25.599Z,100227.22
2017-07-30T22:59:57.816Z,100231.52
2017-07-30T23:02:30.315Z,100240.92
2017-07-30T23:05:02.110Z,100236.12
2017-07-30T23:07:33.998Z,100225.48
2017-07-30T23:10:13.097Z,100229.52
2017-07-30T23:12:44.783Z,100230.45
2017-07-30T23:15:16.643Z,100244.33
2017-07-30T23:17:50.005Z,100244.91
2017-07-30T23:20:23.031Z,100237.71
2017-07-30T23:22:55.483Z,100235.03
2017-07-30T23:25:27.087Z,100240.09
2017-07-30T23:27:58.881Z,100245.27
2017-07-30T23:30:30.259Z,100248.64
2017-07-30T23:33:01.794Z,100246.45
2017-07-30T23:35:33.492Z,100243.02
2017-07-30T23:38:07.852Z,100243.77
2017-07-30T23:40:39.509Z,100246.38
2017-07-30T23:43:10.937Z,100250.73
2017-07-30T23:45:42.381Z,100253.42
2017-07-30T23:48:18.445Z,100244.77
2017-07-30T23:50:49.958Z,100242.92
2017-07-30T23:53:21.956Z,100247.13
2017-07-30T23:55:53.420Z,100235.98
2017-07-30T23:58:24.750Z,100233.37
